Time;durP1;ratioP1;P1;durP2;ratioP2;P2;SDS_P1;SDS_P2;PMS_P1;PMS_P2;Temp;Humidity;BMP_temperature;BMP_pressure;BME280_temperature;BME280_humidity;BME280_pressure;Samples;Min_cycle;Max_cycle;Signal;HPM_P1;HPM_P2
2022/03/25 00:00:10;;;;;;;46.90;32.80;;;9.10;93.70;;;;;;5068273;28;20427;-39
2022/03/25 00:02:36;;;;;;;46.83;34.07;;;9.10;94.00;;;;;;5078427;28;20489;-39
2022/03/25 00:05:02;;;;;;;47.60;33.77;;;9.10;94.80;;;;;;5053134;28;20589;-40
2022/03/25 00:07:28;;;;;;;46.43;34.60;;;8.90;95.00;;;;;;5076732;28;20920;-39
2022/03/25 00:09:54;;;;;;;45.40;33.23;;;9.00;95.30;;;;;;5057662;28;20412;-40
2022/03/25 00:12:19;;;;;;;44.27;33.30;;;8.70;95.50;;;;;;5060853;28;20285;-39
2022/03/25 00:14:45;;;;;;;45.10;32.33;;;8.90;96.20;;;;;;5072444;28;20214;-40
2022/03/25 00:17:11;;;;;;;47.70;34.30;;;8.90;96.40;;;;;;5053199;28;20221;-40
2022/03/25 00:19:36;;;;;;;45.80;32.97;;;8.80;96.80;;;;;;5051122;28;20200;-40
2022/03/25 00:22:02;;;;;;;52.03;34.20;;;8.90;97.00;;;;;;5052751;28;20177;-42
2022/03/25 00:24:28;;;;;;;48.50;35.67;;;8.60;97.20;;;;;;5049221;28;20225;-41
2022/03/25 00:26:53;;;;;;;47.50;34.03;;;8.70;97.40;;;;;;5048821;28;20611;-40
2022/03/25 00:29:19;;;;;;;49.43;35.70;;;8.60;97.60;;;;;;5072089;28;20177;-39
2022/03/25 00:31:45;;;;;;;46.93;35.47;;;8.60;98.10;;;;;;5070273;28;20193;-40
2022/03/25 00:34:11;;;;;;;49.23;35.10;;;8.50;98.60;;;;;;5048369;28;20522;-40
2022/03/25 00:36:37;;;;;;;47.57;35.37;;;8.60;98.60;;;;;;5051848;28;20547;-39
2022/03/25 00:39:03;;;;;;;44.10;33.30;;;8.40;98.60;;;;;;5048908;28;20432;-40
2022/03/25 00:41:32;;;;;;;49.97;35.43;;;8.50;98.90;;;;;;5047829;28;20471;-39
2022/03/25 00:43:58;;;;;;;49.23;33.17;;;8.50;98.90;;;;;;5063161;28;20563;-40
2022/03/25 00:46:24;;;;;;;50.23;34.80;;;8.20;98.70;;;;;;5064166;28;20514;-40
2022/03/25 00:48:49;;;;;;;49.60;35.20;;;8.40;98.70;;;;;;5048479;28;20216;-39
2022/03/25 00:51:15;;;;;;;52.90;36.17;;;8.50;98.60;;;;;;5060034;28;20442;-39
2022/03/25 00:53:41;;;;;;;44.70;32.90;;;8.50;98.80;;;;;;5048504;28;20198;-39
2022/03/25 00:56:07;;;;;;;47.50;33.87;;;8.40;99.00;;;;;;5045900;28;20193;-40
2022/03/25 00:58:33;;;;;;;50.83;34.33;;;8.40;99.00;;;;;;5057979;28;20213;-39
2022/03/25 01:00:59;;;;;;;48.03;33.53;;;8.20;99.20;;;;;;5052805;28;20850;-39
2022/03/25 01:03:25;;;;;;;49.00;34.80;;;8.40;99.50;;;;;;5047833;28;20611;-39
2022/03/25 01:05:50;;;;;;;48.57;35.40;;;8.40;99.60;;;;;;5056285;28;20200;-39
2022/03/25 01:08:16;;;;;;;45.37;33.27;;;8.20;99.70;;;;;;5052167;28;20312;-39
2022/03/25 01:10:45;;;;;;;48.90;34.87;;;8.20;99.90;;;;;;5047010;28;20481;-39
2022/03/25 01:13:11;;;;;;;54.30;34.83;;;8.10;99.90;;;;;;5057072;28;20435;-40
2022/03/25 01:15:38;;;;;;;46.60;33.67;;;8.30;99.90;;;;;;5068221;28;20434;-39
2022/03/25 01:18:03;;;;;;;47.53;33.27;;;8.30;99.90;;;;;;5047483;28;20467;-39
2022/03/25 01:20:30;;;;;;;47.97;34.30;;;8.30;99.70;;;;;;5051658;28;20465;-39
2022/03/25 01:22:56;;;;;;;50.00;35.10;;;8.70;99.60;;;;;;5049717;28;20471;-40
2022/03/25 01:25:22;;;;;;;48.77;34.97;;;8.60;99.40;;;;;;5048378;28;20417;-39
2022/03/25 01:27:48;;;;;;;46.57;33.03;;;8.60;99.10;;;;;;5050486;28;20574;-39
2022/03/25 01:30:13;;;;;;;46.50;33.70;;;8.60;99.30;;;;;;5069224;28;20427;-39
2022/03/25 01:32:39;;;;;;;46.10;33.80;;;8.50;99.60;;;;;;5052186;28;20190;-39
2022/03/25 01:35:09;;;;;;;47.60;33.20;;;8.20;99.90;;;;;;5050779;28;20435;-39
2022/03/25 01:37:36;;;;;;;47.53;33.80;;;8.10;99.90;;;;;;5059056;28;20186;-39
2022/03/25 01:40:02;;;;;;;49.70;34.10;;;8.20;99.90;;;;;;5047577;28;20950;-39
2022/03/25 01:42:30;;;;;;;50.17;34.03;;;8.10;99.90;;;;;;5057484;28;20546;-39
2022/03/25 01:44:56;;;;;;;47.50;32.70;;;8.40;99.90;;;;;;5062759;28;20734;-39
2022/03/25 01:47:30;;;;;;;45.57;33.70;;;8.00;99.90;;;;;;5055583;28;20419;-39
2022/03/25 01:49:57;;;;;;;45.30;34.00;;;8.00;99.90;;;;;;5048126;28;20538;-39
2022/03/25 01:52:23;;;;;;;48.20;34.80;;;7.90;99.90;;;;;;5057758;28;20462;-39
2022/03/25 01:54:49;;;;;;;50.17;35.27;;;7.80;99.90;;;;;;5047672;28;20490;-39
2022/03/25 01:57:15;;;;;;;48.60;34.17;;;7.80;99.90;;;;;;5053910;28;20475;-39
2022/03/25 01:59:41;;;;;;;52.97;35.80;;;7.70;99.90;;;;;;5058960;28;20192;-39
2022/03/25 02:02:07;;;;;;;49.53;34.93;;;7.70;99.90;;;;;;5056322;28;20190;-39
2022/03/25 02:04:34;;;;;;;54.37;34.83;;;7.60;99.90;;;;;;5047627;28;20225;-39
2022/03/25 02:06:59;;;;;;;49.10;34.70;;;7.70;99.90;;;;;;5054472;28;20506;-39
2022/03/25 02:09:26;;;;;;;48.07;33.00;;;7.70;99.90;;;;;;5052269;28;20424;-39
2022/03/25 02:11:51;;;;;;;49.07;32.63;;;7.50;99.90;;;;;;5066191;28;20776;-39
2022/03/25 02:14:18;;;;;;;50.57;34.30;;;7.40;99.90;;;;;;5064515;28;20448;-39
2022/03/25 02:16:46;;;;;;;43.17;33.13;;;7.50;99.90;;;;;;5062057;28;20190;-39
2022/03/25 02:19:13;;;;;;;48.73;32.77;;;7.40;99.90;;;;;;5047127;28;20948;-39
2022/03/25 02:21:41;;;;;;;48.53;33.20;;;7.70;99.90;;;;;;5048630;28;20497;-39
2022/03/25 02:24:08;;;;;;;45.63;33.60;;;7.60;99.90;;;;;;5047324;28;20554;-39
2022/03/25 02:26:35;;;;;;;52.40;33.57;;;7.50;99.90;;;;;;5046993;28;20444;-39
2022/03/25 02:29:01;;;;;;;48.00;34.90;;;7.70;99.90;;;;;;5056275;28;20485;-39
2022/03/25 02:31:27;;;;;;;43.87;33.13;;;7.60;99.90;;;;;;5073663;28;20424;-40
2022/03/25 02:33:56;;;;;;;50.00;32.60;;;7.70;99.90;;;;;;5047140;28;20462;-39
2022/03/25 02:36:22;;;;;;;49.80;34.30;;;7.50;99.90;;;;;;5057129;28;20783;-39
2022/03/25 02:38:48;;;;;;;42.50;31.47;;;7.60;99.90;;;;;;5048061;28;20423;-39
2022/03/25 02:41:13;;;;;;;43.83;33.07;;;7.40;99.90;;;;;;5046337;28;20205;-39
2022/03/25 02:43:39;;;;;;;46.73;32.17;;;7.40;99.90;;;;;;5057251;28;20593;-39
2022/03/25 02:46:06;;;;;;;44.40;31.07;;;7.50;99.90;;;;;;5071699;28;20275;-39
2022/03/25 02:48:32;;;;;;;49.27;33.70;;;7.80;99.90;;;;;;5047298;28;20189;-39
2022/03/25 02:50:58;;;;;;;49.00;34.60;;;7.60;99.90;;;;;;5052276;28;20949;-39
2022/03/25 02:53:24;;;;;;;48.00;34.00;;;7.60;99.90;;;;;;5047511;28;20487;-39
2022/03/25 02:55:50;;;;;;;53.60;34.10;;;7.40;99.90;;;;;;5045304;28;20428;-39
2022/03/25 02:58:17;;;;;;;52.23;35.10;;;7.40;99.90;;;;;;5056796;28;20499;-39
2022/03/25 03:00:43;;;;;;;53.07;35.63;;;7.40;99.90;;;;;;5079304;28;20430;-39
2022/03/25 03:03:08;;;;;;;48.10;35.00;;;7.30;99.90;;;;;;5047803;28;20459;-39
2022/03/25 03:05:34;;;;;;;52.03;35.43;;;7.50;99.90;;;;;;5047289;28;20194;-39
2022/03/25 03:08:01;;;;;;;50.20;35.03;;;7.30;99.90;;;;;;5047238;28;20276;-39
2022/03/25 03:10:27;;;;;;;50.83;35.83;;;7.50;99.90;;;;;;5059460;28;20184;-39
2022/03/25 03:12:53;;;;;;;45.37;33.10;;;7.40;99.90;;;;;;5060608;28;20722;-39
2022/03/25 03:15:20;;;;;;;47.90;35.57;;;7.50;99.90;;;;;;5075726;28;20433;-39
2022/03/25 03:17:46;;;;;;;47.00;33.77;;;7.60;99.90;;;;;;5046736;28;20557;-40
2022/03/25 03:20:13;;;;;;;44.73;32.97;;;7.50;99.90;;;;;;5046109;28;20504;-39
2022/03/25 03:22:40;;;;;;;47.60;33.90;;;7.20;99.90;;;;;;5056456;28;20859;-40
2022/03/25 03:25:06;;;;;;;49.47;36.90;;;7.40;99.90;;;;;;5047243;28;20501;-39
2022/03/25 03:27:31;;;;;;;47.43;33.37;;;7.30;99.90;;;;;;5050243;28;20435;-39
2022/03/25 03:29:58;;;;;;;50.43;36.10;;;7.40;99.90;;;;;;5053763;28;20966;-39
2022/03/25 03:32:25;;;;;;;49.90;34.43;;;7.20;99.90;;;;;;5069676;28;20589;-40
2022/03/25 03:34:53;;;;;;;48.73;34.37;;;7.30;99.90;;;;;;5050620;28;20499;-40
2022/03/25 03:37:20;;;;;;;49.10;35.17;;;7.30;99.90;;;;;;5057309;28;20562;-39
2022/03/25 03:39:46;;;;;;;55.77;36.63;;;7.00;99.90;;;;;;5048596;28;20518;-39
2022/03/25 03:42:11;;;;;;;54.00;37.07;;;7.10;99.90;;;;;;5050008;28;20515;-39
2022/03/25 03:44:38;;;;;;;47.43;35.30;;;7.00;99.90;;;;;;5058389;28;20538;-40
2022/03/25 03:47:06;;;;;;;50.03;35.87;;;7.30;99.90;;;;;;5067418;28;20192;-39
2022/03/25 03:49:35;;;;;;;48.93;34.40;;;7.20;99.90;;;;;;5048971;28;20428;-39
2022/03/25 03:52:02;;;;;;;49.50;36.07;;;7.30;99.90;;;;;;5053381;28;20439;-39
2022/03/25 03:54:27;;;;;;;53.73;36.17;;;7.40;99.90;;;;;;5049838;28;20523;-39
2022/03/25 03:56:53;;;;;;;49.00;33.97;;;7.30;99.90;;;;;;5048566;28;21049;-39
2022/03/25 03:59:19;;;;;;;46.23;34.00;;;7.50;99.90;;;;;;5054704;28;20472;-39
2022/03/25 04:01:45;;;;;;;47.67;34.50;;;7.40;99.90;;;;;;5070847;28;20507;-39
2022/03/25 04:04:12;;;;;;;55.60;35.80;;;7.30;99.90;;;;;;5048483;28;20580;-39
2022/03/25 04:06:38;;;;;;;50.67;35.57;;;7.40;99.90;;;;;;5057090;28;20554;-39
2022/03/25 04:09:03;;;;;;;47.90;34.47;;;7.50;99.90;;;;;;5056783;28;20573;-39
2022/03/25 04:11:29;;;;;;;48.93;34.47;;;7.40;99.90;;;;;;5069197;28;20478;-39
2022/03/25 04:13:55;;;;;;;48.57;35.00;;;7.30;99.90;;;;;;5066715;28;20190;-39
2022/03/25 04:16:22;;;;;;;52.30;34.40;;;7.00;99.90;;;;;;5062769;28;20250;-40
2022/03/25 04:18:48;;;;;;;49.13;34.27;;;6.90;99.90;;;;;;5052823;28;20202;-39
2022/03/25 04:21:14;;;;;;;46.43;34.10;;;7.00;99.90;;;;;;5050729;28;20427;-39
2022/03/25 04:23:39;;;;;;;51.60;35.40;;;7.20;99.90;;;;;;5052706;28;20964;-39
2022/03/25 04:26:05;;;;;;;48.00;32.03;;;7.30;99.90;;;;;;5049316;28;20544;-39
2022/03/25 04:28:31;;;;;;;51.07;35.07;;;7.00;99.90;;;;;;5052157;28;20196;-39
2022/03/25 04:30:56;;;;;;;48.40;34.53;;;7.10;99.90;;;;;;5075245;28;20271;-39
2022/03/25 04:33:22;;;;;;;49.50;32.93;;;6.90;99.90;;;;;;5055209;28;20185;-39
2022/03/25 04:35:48;;;;;;;51.67;34.40;;;6.80;99.90;;;;;;5049323;28;20232;-39
2022/03/25 04:38:15;;;;;;;53.60;35.40;;;6.60;99.90;;;;;;5052632;28;20644;-39
2022/03/25 04:40:41;;;;;;;52.00;35.90;;;6.70;99.90;;;;;;5048507;28;20272;-39
2022/03/25 04:43:07;;;;;;;49.37;34.10;;;7.00;99.90;;;;;;5048921;28;20479;-39
2022/03/25 04:45:33;;;;;;;53.83;36.90;;;6.80;99.90;;;;;;5075212;28;20445;-39
2022/03/25 04:47:59;;;;;;;51.80;37.30;;;6.90;99.90;;;;;;5059061;28;20825;-38
2022/03/25 04:50:27;;;;;;;50.97;35.60;;;7.20;99.90;;;;;;5048389;28;20446;-39
2022/03/25 04:52:53;;;;;;;52.57;35.33;;;7.20;99.90;;;;;;5061836;28;20435;-39
2022/03/25 04:55:20;;;;;;;48.37;34.50;;;7.20;99.90;;;;;;5047998;28;20468;-39
2022/03/25 04:57:47;;;;;;;50.83;36.70;;;7.20;99.90;;;;;;5048006;28;20486;-39
2022/03/25 05:00:14;;;;;;;50.20;36.07;;;7.10;99.90;;;;;;5054606;28;20805;-40
2022/03/25 05:02:40;;;;;;;50.33;35.97;;;7.40;99.90;;;;;;5069128;28;20842;-39
2022/03/25 05:05:06;;;;;;;53.53;36.40;;;6.90;99.90;;;;;;5049015;28;20416;-39
2022/03/25 05:07:32;;;;;;;49.73;35.67;;;7.10;99.90;;;;;;5057289;28;20189;-39
2022/03/25 05:09:58;;;;;;;53.57;36.80;;;6.80;99.90;;;;;;5048342;28;20757;-38
2022/03/25 05:12:25;;;;;;;53.80;35.30;;;6.80;99.90;;;;;;5048635;28;20220;-39
2022/03/25 05:14:51;;;;;;;52.07;35.77;;;6.60;99.90;;;;;;5066255;28;20426;-39
2022/03/25 05:17:16;;;;;;;53.87;37.83;;;6.70;99.90;;;;;;5068513;28;20972;-39
2022/03/25 05:19:42;;;;;;;51.13;34.57;;;6.70;99.90;;;;;;5058782;28;20613;-39
2022/03/25 05:22:08;;;;;;;54.23;36.80;;;6.60;99.90;;;;;;5050968;28;20194;-40
2022/03/25 05:24:34;;;;;;;44.67;33.57;;;6.50;99.90;;;;;;5048746;28;20221;-39
2022/03/25 05:27:00;;;;;;;52.23;36.57;;;6.10;99.90;;;;;;5048447;28;20529;-39
2022/03/25 05:29:26;;;;;;;46.40;35.23;;;6.10;99.90;;;;;;5059711;28;20185;-39
2022/03/25 05:31:52;;;;;;;52.70;34.87;;;6.20;99.90;;;;;;5075891;28;20217;-39
2022/03/25 05:34:18;;;;;;;50.67;34.77;;;6.10;99.90;;;;;;5048186;28;20547;-39
2022/03/25 05:36:43;;;;;;;51.57;35.50;;;6.20;99.90;;;;;;5051128;28;20193;-40
2022/03/25 05:39:09;;;;;;;50.53;35.87;;;6.30;99.90;;;;;;5058688;28;20317;-39
2022/03/25 05:41:34;;;;;;;49.60;35.70;;;6.40;99.90;;;;;;5047743;28;20201;-40
2022/03/25 05:44:00;;;;;;;47.20;34.27;;;6.80;99.90;;;;;;5048081;28;20205;-39
2022/03/25 05:46:26;;;;;;;52.90;35.97;;;6.40;99.90;;;;;;5055920;28;20194;-39
2022/03/25 05:48:52;;;;;;;50.60;35.70;;;6.40;99.90;;;;;;5050677;28;20239;-40
2022/03/25 05:51:18;;;;;;;55.83;35.67;;;6.70;99.90;;;;;;5069873;28;20242;-39
2022/03/25 05:53:44;;;;;;;54.50;36.20;;;6.80;99.90;;;;;;5070299;28;20188;-39
2022/03/25 05:56:10;;;;;;;51.83;36.23;;;6.70;99.90;;;;;;5054317;28;20933;-39
2022/03/25 05:58:37;;;;;;;54.33;36.00;;;6.90;99.90;;;;;;5046487;28;20831;-39
2022/03/25 06:01:04;;;;;;;50.67;35.00;;;6.60;99.90;;;;;;5054905;28;20431;-39
2022/03/25 06:03:32;;;;;;;50.77;35.50;;;6.60;99.90;;;;;;5060016;28;20459;-39
2022/03/25 06:05:58;;;;;;;50.13;34.67;;;6.90;99.90;;;;;;5059899;28;20432;-39
2022/03/25 06:08:24;;;;;;;51.60;34.80;;;6.70;99.90;;;;;;5058107;28;20507;-39
2022/03/25 06:10:50;;;;;;;54.17;35.27;;;6.80;99.90;;;;;;5063180;28;20506;-39
2022/03/25 06:13:16;;;;;;;48.93;33.93;;;6.90;99.90;;;;;;5067415;28;20271;-39
2022/03/25 06:15:42;;;;;;;50.80;34.57;;;7.20;99.90;;;;;;5058664;28;20947;-39
2022/03/25 06:18:08;;;;;;;57.30;36.37;;;7.30;99.90;;;;;;5065178;28;20789;-40
2022/03/25 06:20:34;;;;;;;56.10;35.87;;;7.20;99.90;;;;;;5059556;28;20216;-40
2022/03/25 06:23:00;;;;;;;48.37;34.53;;;7.00;99.90;;;;;;5061313;28;20454;-40
2022/03/25 06:25:25;;;;;;;51.10;35.77;;;7.00;99.90;;;;;;5051050;28;20220;-39
2022/03/25 06:27:57;;;;;;;47.17;33.27;;;6.90;99.90;;;;;;5047555;28;20194;-40
2022/03/25 06:30:27;;;;;;;50.47;35.90;;;7.30;99.90;;;;;;5060675;28;20656;-39
2022/03/25 06:32:53;;;;;;;46.00;32.93;;;7.60;99.90;;;;;;5061163;28;20790;-40
2022/03/25 06:35:20;;;;;;;50.10;33.40;;;7.70;99.90;;;;;;5047016;28;20425;-39
2022/03/25 06:37:46;;;;;;;49.27;34.10;;;7.70;99.90;;;;;;5055459;28;20427;-40
2022/03/25 06:40:13;;;;;;;52.40;34.50;;;8.10;99.90;;;;;;5048905;28;20949;-40
2022/03/25 06:42:39;;;;;;;51.00;34.47;;;8.10;99.90;;;;;;5066680;28;20841;-40
2022/03/25 06:45:08;;;;;;;48.33;34.47;;;8.20;99.90;;;;;;5061568;28;20519;-40
2022/03/25 06:47:34;;;;;;;52.40;36.50;;;8.60;99.90;;;;;;5054776;28;20414;-40
2022/03/25 06:50:01;;;;;;;46.00;33.53;;;8.50;99.90;;;;;;5047672;28;20947;-39
2022/03/25 06:52:27;;;;;;;46.20;33.47;;;8.50;99.90;;;;;;5054406;28;20459;-42
2022/03/25 06:54:53;;;;;;;52.20;35.83;;;8.60;99.90;;;;;;5068828;28;20792;-40
2022/03/25 06:57:20;;;;;;;53.83;37.03;;;8.80;99.90;;;;;;5046121;28;20539;-40
2022/03/25 06:59:46;;;;;;;52.80;35.93;;;8.70;99.90;;;;;;5046429;28;20502;-40
2022/03/25 07:02:12;;;;;;;49.37;33.90;;;9.00;99.90;;;;;;5074645;28;20427;-40
2022/03/25 07:04:38;;;;;;;46.70;35.47;;;9.00;99.90;;;;;;5067690;28;20466;-42
2022/03/25 07:07:06;;;;;;;47.10;33.93;;;8.90;99.90;;;;;;5076160;28;20965;-40
2022/03/25 07:09:32;;;;;;;48.13;35.10;;;9.10;99.90;;;;;;5060555;28;20502;-39
2022/03/25 07:11:59;;;;;;;55.37;36.90;;;9.20;99.90;;;;;;5045812;28;20463;-39
2022/03/25 07:14:25;;;;;;;53.27;38.33;;;9.20;99.90;;;;;;5049780;28;20779;-39
2022/03/25 07:16:51;;;;;;;55.17;36.27;;;9.30;99.90;;;;;;5065899;28;20422;-40
2022/03/25 07:19:17;;;;;;;53.30;36.77;;;9.40;99.90;;;;;;5061816;28;20425;-40
2022/03/25 07:21:44;;;;;;;48.30;36.07;;;9.60;99.90;;;;;;5053991;28;20438;-40
2022/03/25 07:24:11;;;;;;;47.00;35.70;;;9.70;99.90;;;;;;5060983;28;20495;-40
2022/03/25 07:26:37;;;;;;;50.10;35.20;;;9.90;99.90;;;;;;5046769;28;20420;-40
2022/03/25 07:29:03;;;;;;;49.67;35.57;;;10.00;99.90;;;;;;5049567;28;20548;-39
2022/03/25 07:31:29;;;;;;;48.93;35.27;;;10.00;99.90;;;;;;5066471;28;20441;-39
2022/03/25 07:33:55;;;;;;;53.30;34.80;;;10.30;99.90;;;;;;5061662;28;20891;-40
2022/03/25 07:36:21;;;;;;;48.87;34.93;;;10.10;99.90;;;;;;5046649;28;20269;-40
2022/03/25 07:38:46;;;;;;;49.87;36.80;;;10.20;99.90;;;;;;5053249;28;20466;-39
2022/03/25 07:41:12;;;;;;;49.93;34.80;;;10.30;99.50;;;;;;5050027;28;20197;-42
2022/03/25 07:43:39;;;;;;;53.07;35.23;;;10.40;99.30;;;;;;5046175;28;20224;-39
2022/03/25 07:46:05;;;;;;;47.87;33.17;;;10.70;99.30;;;;;;5064326;28;20464;-39
2022/03/25 07:48:32;;;;;;;49.10;34.70;;;10.90;99.40;;;;;;5057798;28;20489;-40
2022/03/25 07:50:58;;;;;;;42.27;31.10;;;11.20;98.40;;;;;;5052644;28;20424;-38
2022/03/25 07:53:24;;;;;;;41.93;30.20;;;11.60;97.90;;;;;;5057834;28;20420;-39
2022/03/25 07:55:51;;;;;;;48.13;31.40;;;11.80;96.60;;;;;;5044606;28;20435;-39
2022/03/25 07:58:21;;;;;;;40.53;29.80;;;12.00;96.50;;;;;;5046246;28;20205;-42
2022/03/25 08:00:48;;;;;;;43.13;28.50;;;12.10;95.20;;;;;;5057906;28;20711;-40
2022/03/25 08:03:14;;;;;;;41.83;29.33;;;12.20;94.90;;;;;;5070099;28;20459;-39
2022/03/25 08:05:40;;;;;;;43.70;29.77;;;12.30;94.50;;;;;;5057762;28;20434;-40
2022/03/25 08:08:06;;;;;;;45.33;30.30;;;12.40;94.00;;;;;;5058665;28;20419;-40
2022/03/25 08:10:32;;;;;;;41.33;27.80;;;12.40;93.60;;;;;;5057909;28;20408;-39
2022/03/25 08:12:59;;;;;;;40.90;27.80;;;12.50;93.60;;;;;;5057801;28;20420;-40
2022/03/25 08:15:29;;;;;;;37.13;27.63;;;12.60;93.60;;;;;;5061602;28;20435;-42
2022/03/25 08:18:16;;;;;;;41.20;29.90;;;12.80;93.10;;;;;;5060215;28;20778;-41
2022/03/25 08:20:44;;;;;;;43.57;30.80;;;12.90;93.60;;;;;;5056784;28;20976;-40
2022/03/25 08:23:13;;;;;;;40.17;29.50;;;12.90;93.70;;;;;;5058124;28;20459;-40
2022/03/25 08:28:27;;;;;;;41.67;28.57;;;12.80;92.80;;;;;;5060873;28;20430;-43
2022/03/25 08:30:53;;;;;;;36.23;26.67;;;12.80;92.70;;;;;;5058865;28;20910;-45
2022/03/25 08:33:19;;;;;;;40.67;27.73;;;12.80;92.60;;;;;;5064454;28;20698;-39
2022/03/25 08:35:45;;;;;;;40.67;28.70;;;12.90;93.10;;;;;;5058416;28;20859;-42
2022/03/25 08:38:12;;;;;;;47.77;31.20;;;12.90;92.90;;;;;;5058851;28;20447;-40
2022/03/25 08:40:39;;;;;;;42.30;31.00;;;12.90;93.00;;;;;;5053830;28;20433;-43
2022/03/25 08:43:06;;;;;;;40.70;29.90;;;12.90;93.10;;;;;;5059598;28;20520;-39
2022/03/25 08:45:33;;;;;;;39.63;28.50;;;13.00;92.80;;;;;;5058993;28;20438;-39
2022/03/25 08:47:59;;;;;;;41.70;28.53;;;13.20;92.20;;;;;;5058508;28;20482;-41
2022/03/25 08:50:26;;;;;;;40.80;32.40;;;13.30;91.90;;;;;;5054195;28;20701;-39
2022/03/25 08:52:52;;;;;;;43.33;29.70;;;13.40;92.20;;;;;;5057148;28;20432;-44
2022/03/25 08:55:20;;;;;;;45.30;31.40;;;13.50;91.40;;;;;;5056166;28;20436;-39
2022/03/25 08:57:47;;;;;;;45.93;30.93;;;13.60;92.30;;;;;;5058033;28;20443;-42
2022/03/25 09:00:15;;;;;;;44.40;31.77;;;13.60;91.80;;;;;;5062166;28;20527;-39
2022/03/25 09:02:44;;;;;;;36.97;28.93;;;13.70;91.30;;;;;;5068773;28;20638;-40
2022/03/25 09:05:11;;;;;;;43.70;32.40;;;13.80;92.40;;;;;;5052524;28;20416;-39
2022/03/25 09:07:37;;;;;;;40.20;28.80;;;13.90;91.30;;;;;;5063318;28;20432;-43
2022/03/25 09:10:11;;;;;;;39.73;28.10;;;14.00;92.30;;;;;;5048339;28;20452;-41
2022/03/25 09:12:37;;;;;;;40.20;27.73;;;14.10;90.70;;;;;;5047659;28;20853;-39
2022/03/25 09:15:05;;;;;;;39.57;29.00;;;14.30;90.00;;;;;;5051882;28;20435;-39
2022/03/25 09:17:31;;;;;;;37.73;29.37;;;14.40;88.20;;;;;;5065976;28;20426;-39
2022/03/25 09:19:57;;;;;;;39.40;28.23;;;14.50;89.60;;;;;;5061012;28;20454;-42
2022/03/25 09:22:23;;;;;;;42.40;28.77;;;14.60;90.40;;;;;;5048456;28;20696;-42
2022/03/25 09:24:49;;;;;;;37.20;27.13;;;14.80;87.20;;;;;;5048189;28;20904;-43
2022/03/25 09:27:15;;;;;;;40.67;26.70;;;15.00;84.90;;;;;;5052388;28;20474;-41
2022/03/25 09:29:40;;;;;;;43.10;24.33;;;15.20;83.20;;;;;;5057503;28;20216;-42
2022/03/25 09:32:07;;;;;;;36.03;25.47;;;15.40;80.20;;;;;;5075921;28;20528;-39
2022/03/25 09:37:17;;;;;;;33.30;24.50;;;15.80;82.10;;;;;;5047938;28;20510;-42
2022/03/25 09:39:42;;;;;;;29.60;22.57;;;15.90;76.10;;;;;;5048266;28;20542;-40
2022/03/25 09:42:08;;;;;;;31.30;21.73;;;16.00;75.50;;;;;;5047911;28;20201;-42
2022/03/25 09:44:34;;;;;;;35.10;22.97;;;16.20;74.30;;;;;;5047965;28;20228;-41
2022/03/25 09:47:03;;;;;;;31.33;24.00;;;16.40;73.60;;;;;;5051573;28;20587;-44
2022/03/25 09:49:29;;;;;;;33.73;24.27;;;16.60;74.50;;;;;;5072473;28;20212;-39
2022/03/25 09:51:55;;;;;;;31.13;21.97;;;16.70;72.60;;;;;;5045909;28;20432;-40
2022/03/25 09:54:21;;;;;;;32.70;22.83;;;16.90;68.70;;;;;;5057131;28;20193;-39
2022/03/25 09:56:48;;;;;;;31.40;23.67;;;17.10;66.40;;;;;;5046667;28;20452;-39
2022/03/25 09:59:17;;;;;;;32.67;24.00;;;17.20;66.30;;;;;;5054938;28;20188;-39
2022/03/25 10:01:43;;;;;;;35.03;24.07;;;17.40;63.90;;;;;;5061101;28;20446;-41
2022/03/25 10:04:29;;;;;;;31.53;22.43;;;17.40;64.40;;;;;;5065530;28;20458;-41
2022/03/25 10:06:55;;;;;;;28.57;20.93;;;17.60;66.90;;;;;;5047644;28;20526;-43
2022/03/25 10:09:22;;;;;;;32.33;21.70;;;17.70;64.10;;;;;;5052459;28;20508;-39
2022/03/25 10:11:48;;;;;;;34.47;20.47;;;17.80;62.60;;;;;;5046716;28;20682;-39
2022/03/25 10:14:23;;;;;;;30.97;20.70;;;17.90;61.10;;;;;;5047493;28;20593;-40
2022/03/25 10:16:53;;;;;;;26.17;20.30;;;18.00;59.50;;;;;;5064490;28;20613;-45
2022/03/25 10:19:23;;;;;;;31.63;20.47;;;18.00;59.50;;;;;;5067916;28;20567;-43
2022/03/25 10:21:58;;;;;;;29.43;20.07;;;18.00;59.20;;;;;;5048087;28;20720;-40
2022/03/25 10:24:39;;;;;;;28.77;18.07;;;17.90;58.80;;;;;;5047152;28;20482;-41
2022/03/25 10:27:07;;;;;;;25.90;19.70;;;18.00;60.10;;;;;;5047265;28;20428;-41
2022/03/25 10:29:35;;;;;;;40.90;20.90;;;18.10;60.20;;;;;;5045478;28;20444;-39
2022/03/25 10:32:11;;;;;;;26.93;18.87;;;18.10;60.30;;;;;;5055487;28;20899;-40
2022/03/25 10:34:39;;;;;;;27.80;17.53;;;18.10;58.80;;;;;;5052806;28;20451;-43
2022/03/25 10:37:09;;;;;;;25.80;19.50;;;18.20;59.20;;;;;;5048679;28;20464;-45
2022/03/25 10:39:35;;;;;;;27.03;18.77;;;18.30;59.40;;;;;;5056426;28;20477;-45
2022/03/25 10:42:03;;;;;;;28.30;20.73;;;18.40;62.80;;;;;;5047995;28;20460;-39
2022/03/25 10:44:37;;;;;;;31.67;20.33;;;18.50;61.50;;;;;;5047057;28;20228;-41
2022/03/25 10:47:31;;;;;;;27.13;20.53;;;18.40;59.20;;;;;;5049733;28;20436;-40
2022/03/25 10:50:14;;;;;;;31.73;20.77;;;18.20;59.90;;;;;;5052121;28;20423;-43
2022/03/25 10:52:41;;;;;;;25.83;19.37;;;18.10;58.60;;;;;;5066983;28;20426;-39
2022/03/25 10:55:36;;;;;;;32.20;22.23;;;18.10;59.70;;;;;;5060266;28;20503;-41
2022/03/25 10:58:08;;;;;;;30.37;21.50;;;18.10;61.10;;;;;;5037224;28;20444;-45
2022/03/25 11:00:34;;;;;;;26.87;20.43;;;18.10;60.00;;;;;;5045077;28;20447;-43
2022/03/25 11:03:00;;;;;;;30.17;20.20;;;18.30;59.90;;;;;;5048232;28;21040;-39
2022/03/25 11:05:26;;;;;;;34.90;22.27;;;18.30;60.90;;;;;;5063767;28;20420;-40
2022/03/25 11:07:52;;;;;;;30.17;22.60;;;18.30;59.90;;;;;;5045998;28;20424;-40
2022/03/25 11:10:18;;;;;;;29.50;22.90;;;18.40;60.20;;;;;;5057658;28;20203;-42
2022/03/25 11:12:49;;;;;;;30.17;21.90;;;18.40;60.30;;;;;;5047958;28;20519;-41
2022/03/25 11:15:19;;;;;;;31.83;22.67;;;18.50;62.50;;;;;;5048329;28;20424;-40
2022/03/25 11:17:46;;;;;;;32.43;23.40;;;18.50;60.90;;;;;;5055520;28;20527;-40
2022/03/25 11:20:14;;;;;;;28.20;22.10;;;18.50;59.90;;;;;;5072646;28;20430;-40
2022/03/25 11:22:46;;;;;;;29.07;22.00;;;18.70;64.00;;;;;;5056218;28;20431;-40
2022/03/25 11:25:16;;;;;;;29.13;21.57;;;18.60;60.60;;;;;;5066256;28;20489;-40
2022/03/25 11:27:46;;;;;;;28.97;21.57;;;18.70;63.00;;;;;;5046530;28;20857;-40
2022/03/25 11:30:16;;;;;;;28.00;22.33;;;18.80;60.60;;;;;;5045958;28;20421;-40
2022/03/25 11:33:03;;;;;;;29.47;20.90;;;18.70;58.80;;;;;;5055127;28;20426;-40
2022/03/25 11:35:32;;;;;;;34.53;21.70;;;18.70;59.50;;;;;;5054759;28;20420;-39
2022/03/25 11:38:09;;;;;;;29.37;22.40;;;18.60;60.60;;;;;;5046412;28;20440;-42
2022/03/25 11:40:36;;;;;;;26.17;21.30;;;18.60;61.80;;;;;;5053512;28;20415;-40
2022/03/25 11:43:13;;;;;;;30.93;21.90;;;18.80;61.60;;;;;;5046220;28;20464;-40
2022/03/25 11:45:39;;;;;;;27.33;19.70;;;19.00;60.20;;;;;;5045836;28;20455;-40
2022/03/25 11:48:04;;;;;;;29.87;22.07;;;19.10;60.70;;;;;;5062756;28;20478;-40
2022/03/25 11:50:35;;;;;;;27.17;22.40;;;18.90;60.30;;;;;;5069486;28;20428;-41
2022/03/25 11:53:10;;;;;;;26.27;21.50;;;18.90;60.10;;;;;;5048841;28;20185;-43
2022/03/25 11:56:02;;;;;;;26.73;20.67;;;18.80;61.60;;;;;;5052855;28;20956;-40
2022/03/25 11:58:50;;;;;;;28.47;20.90;;;18.70;60.00;;;;;;5061580;28;21126;-41
2022/03/25 12:01:18;;;;;;;31.20;20.73;;;18.70;60.30;;;;;;5055459;28;20438;-42
2022/03/25 12:03:49;;;;;;;28.37;21.77;;;18.70;60.70;;;;;;5073427;28;21045;-43
2022/03/25 12:06:20;;;;;;;27.97;20.33;;;18.90;60.50;;;;;;5056445;28;20433;-45
2022/03/25 12:09:05;;;;;;;30.50;22.43;;;19.00;61.40;;;;;;5050557;28;20424;-40
2022/03/25 12:11:52;;;;;;;29.23;22.50;;;19.10;58.40;;;;;;5055993;28;20419;-43
2022/03/25 12:14:31;;;;;;;27.60;21.00;;;19.00;59.10;;;;;;5061877;28;20511;-43
2022/03/25 12:17:06;;;;;;;29.43;21.80;;;19.00;60.30;;;;;;5042206;28;20821;-40
2022/03/25 12:19:41;;;;;;;31.20;22.13;;;18.90;58.50;;;;;;5063460;28;20467;-43
2022/03/25 12:22:22;;;;;;;28.10;20.40;;;18.90;57.70;;;;;;5055021;28;20419;-40
2022/03/25 12:25:04;;;;;;;30.40;21.97;;;18.80;57.40;;;;;;5053745;28;20462;-40
2022/03/25 12:27:30;;;;;;;28.07;21.20;;;18.70;59.30;;;;;;5049793;28;20432;-40
2022/03/25 12:29:57;;;;;;;29.03;22.97;;;18.80;59.90;;;;;;5049293;28;20424;-41
2022/03/25 12:32:25;;;;;;;28.77;21.90;;;18.90;59.30;;;;;;5060188;28;20475;-43
2022/03/25 12:34:54;;;;;;;29.53;22.40;;;19.00;59.90;;;;;;5071089;28;20940;-40
2022/03/25 12:37:49;;;;;;;27.80;21.50;;;19.00;60.10;;;;;;5060860;28;20446;-40
2022/03/25 12:40:26;;;;;;;26.67;21.73;;;19.10;59.20;;;;;;5049728;28;20428;-40